createdAt,value
2023-05-15T00:03:16.624Z,3.13
2023-05-15T00:08:19.331Z,3.20
2023-05-15T00:13:21.871Z,2.88
2023-05-15T00:18:24.546Z,3.00
2023-05-15T00:23:27.458Z,3.00
2023-05-15T00:28:30.341Z,2.92
2023-05-15T00:33:33.106Z,2.97
2023-05-15T00:38:36.083Z,2.80
2023-05-15T00:43:40.607Z,2.72
2023-05-15T00:48:44.698Z,2.67
2023-05-15T00:53:47.893Z,2.55
2023-05-15T00:58:52.291Z,5.35
2023-05-15T01:03:55.008Z,6.07
2023-05-15T01:09:02.491Z,4.07
2023-05-15T01:14:07.438Z,3.20
2023-05-15T01:19:10.553Z,2.72
2023-05-15T01:24:34.328Z,3.05
2023-05-15T01:29:53.263Z,3.35
2023-05-15T01:35:27.530Z,3.50
2023-05-15T01:40:30.661Z,3.38
2023-05-15T01:45:34.545Z,2.85
2023-05-15T01:50:39.585Z,3.28
2023-05-15T01:55:42.962Z,3.58
2023-05-15T02:00:47.107Z,7.80
2023-05-15T02:05:51.883Z,6.88
2023-05-15T02:10:57.534Z,6.72
2023-05-15T02:16:00.386Z,3.65
2023-05-15T02:21:03.613Z,2.60
2023-05-15T02:26:19.658Z,2.83
2023-05-15T02:31:32.797Z,3.15
2023-05-15T02:36:41.021Z,2.67
2023-05-15T02:41:46.950Z,2.65
2023-05-15T02:46:53.954Z,2.50
2023-05-15T02:51:56.955Z,2.28
2023-05-15T02:56:59.722Z,2.72
2023-05-15T03:02:03.909Z,2.70
2023-05-15T03:12:09.906Z,5.60
2023-05-15T03:17:13.026Z,5.13
2023-05-15T03:22:15.949Z,4.55
2023-05-15T03:27:18.812Z,3.70
2023-05-15T03:32:21.668Z,5.40
2023-05-15T03:37:24.234Z,4.05
2023-05-15T03:42:28.330Z,2.80
2023-05-15T03:47:31.105Z,2.50
2023-05-15T03:52:33.722Z,3.10
2023-05-15T03:57:37.089Z,2.60
2023-05-15T04:02:58.553Z,2.03
2023-05-15T04:08:01.655Z,1.90
2023-05-15T04:13:04.500Z,2.85
2023-05-15T04:18:07.365Z,2.80
2023-05-15T04:23:10.025Z,2.40
2023-05-15T04:28:13.852Z,2.38
2023-05-15T04:33:16.929Z,2.58
2023-05-15T04:38:20.033Z,2.40
2023-05-15T04:43:23.254Z,2.75
2023-05-15T04:48:26.114Z,3.00
2023-05-15T04:53:28.781Z,2.85
2023-05-15T04:58:31.541Z,2.75
2023-05-15T05:03:34.602Z,2.47
2023-05-15T05:08:37.263Z,2.63
2023-05-15T05:13:40.484Z,2.92
2023-05-15T05:18:43.392Z,2.22
2023-05-15T05:23:47.560Z,2.40
2023-05-15T05:28:50.352Z,2.70
2023-05-15T05:33:53.139Z,2.10
2023-05-15T05:38:56.078Z,2.38
2023-05-15T05:43:58.802Z,2.80
2023-05-15T05:49:01.786Z,2.63
2023-05-15T05:54:04.767Z,1.85
2023-05-15T05:59:07.588Z,2.70
2023-05-15T06:09:13.730Z,1.75
2023-05-15T06:14:16.442Z,2.58
2023-05-15T06:24:22.318Z,2.78
2023-05-15T06:29:25.129Z,2.35
2023-05-15T06:34:28.007Z,2.83
2023-05-15T06:39:30.930Z,2.75
2023-05-15T06:44:33.924Z,2.70
2023-05-15T06:49:36.670Z,2.63
2023-05-15T06:54:40.842Z,2.28
2023-05-15T06:59:43.827Z,3.40
2023-05-15T07:04:46.845Z,3.45
2023-05-15T07:09:50.637Z,4.13
2023-05-15T07:14:53.531Z,4.85
2023-05-15T07:19:56.246Z,2.33
2023-05-15T07:24:59.054Z,3.63
2023-05-15T07:30:04.956Z,3.08
2023-05-15T07:35:08.506Z,2.53
2023-05-15T07:40:11.512Z,2.75
2023-05-15T07:45:14.467Z,3.30
2023-05-15T07:50:17.568Z,3.67
2023-05-15T07:55:20.300Z,3.03
2023-05-15T08:00:23.421Z,2.50
2023-05-15T08:05:26.985Z,2.80
2023-05-15T08:10:29.790Z,2.63
2023-05-15T08:15:33.235Z,2.75
2023-05-15T08:20:36.218Z,2.60
2023-05-15T08:25:39.265Z,2.78
2023-05-15T08:30:42.002Z,2.72
2023-05-15T08:35:44.703Z,3.22
2023-05-15T08:40:51.789Z,2.63
2023-05-15T08:45:57.458Z,2.40
2023-05-15T09:13:48.164Z,2.17
2023-05-15T09:18:56.161Z,2.60
2023-05-15T09:24:29.058Z,2.47
2023-05-15T09:29:32.901Z,2.33
2023-05-15T09:34:41.530Z,2.80
2023-05-15T09:44:47.541Z,1.90
2023-05-15T09:49:50.457Z,2.63
2023-05-15T09:54:54.324Z,2.85
2023-05-15T10:00:02.212Z,2.30
2023-05-15T10:05:16.369Z,2.25
2023-05-15T10:10:19.252Z,2.38
2023-05-15T10:15:23.383Z,2.67
2023-05-15T10:20:27.183Z,2.75
2023-05-15T10:25:42.212Z,2.65
2023-05-15T10:35:49.406Z,2.80
2023-05-15T10:40:59.795Z,2.25
2023-05-15T10:46:09.474Z,2.38
2023-05-15T10:51:24.314Z,2.08
2023-05-15T10:56:30.973Z,3.20
2023-05-15T11:01:39.244Z,2.60
2023-05-15T11:07:04.613Z,2.03
2023-05-15T11:12:09.601Z,1.75
2023-05-15T11:17:15.801Z,3.60
2023-05-15T11:22:20.043Z,1.90
2023-05-15T11:27:28.328Z,1.55
2023-05-15T11:32:50.040Z,1.70
2023-05-15T11:38:04.222Z,1.77
2023-05-15T11:43:16.908Z,1.80
2023-05-15T11:48:20.580Z,1.60
2023-05-15T11:53:24.704Z,1.85
2023-05-15T11:58:27.516Z,1.80
2023-05-15T12:03:35.426Z,1.48
2023-05-15T12:08:38.910Z,1.80
2023-05-15T12:13:41.629Z,1.95
2023-05-15T12:18:44.256Z,1.67
2023-05-15T12:29:00.673Z,3.50
2023-05-15T12:34:03.561Z,3.08
2023-05-15T12:39:08.299Z,4.60
2023-05-15T12:44:18.678Z,3.30
2023-05-15T12:49:23.044Z,2.83
2023-05-15T12:54:26.848Z,2.00
2023-05-15T12:59:34.309Z,1.83
2023-05-15T13:04:38.041Z,1.65
2023-05-15T13:09:42.535Z,2.50
2023-05-15T13:14:52.236Z,1.77
2023-05-15T13:19:57.960Z,3.35
2023-05-15T13:25:01.821Z,1.95
2023-05-15T13:30:07.377Z,4.10
2023-05-15T13:35:10.702Z,6.43
2023-05-15T13:40:16.942Z,4.93
2023-05-15T13:45:21.277Z,2.22
2023-05-15T13:50:27.590Z,2.60
2023-05-15T13:55:32.090Z,2.40
2023-05-15T14:00:35.694Z,2.55
2023-05-15T14:05:43.140Z,2.40
2023-05-15T14:10:52.404Z,1.85
2023-05-15T14:15:56.216Z,2.55
2023-05-15T14:26:02.786Z,2.10
2023-05-15T14:31:06.081Z,2.85
2023-05-15T14:36:09.472Z,2.60
2023-05-15T14:41:12.781Z,3.00
2023-05-15T14:46:16.300Z,3.95
2023-05-15T14:51:20.166Z,2.75
2023-05-15T14:56:23.540Z,2.20
2023-05-15T15:01:26.806Z,1.85
2023-05-15T15:06:30.085Z,1.98
2023-05-15T15:11:32.986Z,1.92
2023-05-15T15:16:35.730Z,1.42
2023-05-15T15:21:39.022Z,1.70
2023-05-15T15:26:41.809Z,1.52
2023-05-15T15:31:44.756Z,1.83
2023-05-15T15:36:48.365Z,1.48
2023-05-15T15:41:51.086Z,1.50
2023-05-15T15:46:53.951Z,2.20
2023-05-15T15:51:56.713Z,2.92
2023-05-15T15:56:59.680Z,3.67
2023-05-15T16:02:05.664Z,1.40
2023-05-15T16:07:08.498Z,1.20
2023-05-15T16:12:11.789Z,1.88
2023-05-15T16:17:14.413Z,3.30
2023-05-15T16:22:18.425Z,3.88
2023-05-15T16:27:21.200Z,3.70
2023-05-15T16:32:24.232Z,2.38
2023-05-15T16:37:26.914Z,3.05
2023-05-15T16:42:29.913Z,2.38
2023-05-15T16:47:32.977Z,2.90
2023-05-15T16:52:36.348Z,2.60
2023-05-15T16:57:39.110Z,2.55
2023-05-15T17:02:45.398Z,3.15
2023-05-15T17:07:48.520Z,4.10
2023-05-15T17:12:51.455Z,3.20
2023-05-15T17:17:54.585Z,2.53
2023-05-15T17:22:58.362Z,1.60
2023-05-15T17:28:03.316Z,1.55
2023-05-15T17:33:06.096Z,1.70
2023-05-15T17:38:11.444Z,1.80
2023-05-15T17:43:14.183Z,2.10
2023-05-15T17:48:16.956Z,1.85
2023-05-15T17:53:19.742Z,1.83
2023-05-15T17:58:22.554Z,1.90
2023-05-15T18:03:25.381Z,2.20
2023-05-15T18:08:28.097Z,1.73
2023-05-15T18:13:30.846Z,1.65
2023-05-15T18:18:35.711Z,1.48
2023-05-15T18:23:38.610Z,1.88
2023-05-15T18:28:41.742Z,1.88
2023-05-15T18:33:45.343Z,1.40
2023-05-15T18:38:48.244Z,1.63
2023-05-15T18:43:51.568Z,2.25
2023-05-15T18:48:54.642Z,3.35
2023-05-15T18:53:57.299Z,4.10
2023-05-15T18:59:00.053Z,3.53
2023-05-15T19:04:04.024Z,2.63
2023-05-15T19:09:06.593Z,1.60
2023-05-15T19:14:09.379Z,1.45
2023-05-15T19:19:12.713Z,1.48
2023-05-15T19:24:15.387Z,1.90
2023-05-15T19:29:18.340Z,1.88
2023-05-15T19:34:21.069Z,2.13
2023-05-15T19:39:23.717Z,2.28
2023-05-15T19:44:26.555Z,2.42
2023-05-15T19:49:29.393Z,2.20
2023-05-15T19:54:32.326Z,2.88
2023-05-15T19:59:35.245Z,2.97
2023-05-15T20:04:38.188Z,3.10
2023-05-15T20:09:40.818Z,3.72
2023-05-15T20:14:52.102Z,4.15
2023-05-15T20:19:54.629Z,4.25
2023-05-15T20:24:57.510Z,2.97
2023-05-15T20:30:01.688Z,2.28
2023-05-15T20:35:08.326Z,3.40
2023-05-15T20:40:13.118Z,5.57
2023-05-15T20:45:16.267Z,4.47
2023-05-15T20:50:19.283Z,3.67
2023-05-15T20:55:22.111Z,2.80
2023-05-15T21:00:25.149Z,3.00
2023-05-15T21:05:27.957Z,2.97
2023-05-15T21:10:30.636Z,3.00
2023-05-15T21:15:33.672Z,3.03
2023-05-15T21:20:36.475Z,2.67
2023-05-15T21:25:39.308Z,2.53
2023-05-15T21:30:41.897Z,2.30
2023-05-15T21:35:45.648Z,2.53
2023-05-15T21:40:48.655Z,2.65
2023-05-15T21:45:51.668Z,2.22
2023-05-15T21:50:57.937Z,2.70
2023-05-15T21:56:02.077Z,3.13
2023-05-15T22:01:04.978Z,2.83
2023-05-15T22:06:08.033Z,2.20
2023-05-15T22:11:10.782Z,2.83
2023-05-15T22:16:13.462Z,2.80
2023-05-15T22:21:16.645Z,4.00
2023-05-15T22:26:20.800Z,4.60
2023-05-15T22:31:23.781Z,2.60
2023-05-15T22:36:27.028Z,2.20
2023-05-15T22:41:29.716Z,2.17
2023-05-15T22:46:32.505Z,1.63
2023-05-15T22:51:35.608Z,1.48
2023-05-15T22:56:38.381Z,1.55
2023-05-15T23:01:41.568Z,2.05
2023-05-15T23:06:44.544Z,1.88
2023-05-15T23:11:47.343Z,1.80
2023-05-15T23:16:50.216Z,1.83
2023-05-15T23:21:52.979Z,1.88
2023-05-15T23:26:55.951Z,1.38
2023-05-15T23:31:58.690Z,1.90
2023-05-15T23:37:01.378Z,2.05
2023-05-15T23:42:04.193Z,1.90
2023-05-15T23:47:07.273Z,2.58
2023-05-15T23:52:10.143Z,3.30
2023-05-15T23:57:12.875Z,4.10
